SE-0007 weather

Staffanstorp Bjällerup Field
Skåne län, Sweden

Public forecast

Using degrees Celsius for public forecast. Weather courtesy of forecast.io.

METAR (pilot weather report)

Closest report is Malmö Sturup Airport, 8.3 nm (15.3 km) SSE. Retrieved 2019/07/17 23:20 UTC (32 minutes ago):

ESMS 172320Z 31003KT CAVOK 12/12 Q1013

TAF (pilot weather forecast)

Closest forecast is Malmö Sturup Airport, 8.3 nm (15.3 km) SSE. Retrieved 2019/07/17 18:33 UTC (5 hours ago):

TAF ESMS 171700Z 1718/1818 30005KT 9999 SCT040